sensor_id;sensor_type;location;lat;lon;timestamp;P1;durP1;ratioP1;P2;durP2;ratioP2
16115;SDS011;8162;47.104;15.432;2023-04-03T00:00:38;3.73;;;2.57;;
16115;SDS011;8162;47.104;15.432;2023-04-03T00:03:39;2.37;;;1.93;;
16115;SDS011;8162;47.104;15.432;2023-04-03T00:06:41;2.37;;;1.80;;
16115;SDS011;8162;47.104;15.432;2023-04-03T00:09:42;1.97;;;1.70;;
16115;SDS011;8162;47.104;15.432;2023-04-03T00:12:43;2.70;;;2.07;;
16115;SDS011;8162;47.104;15.432;2023-04-03T00:15:44;2.27;;;1.77;;
16115;SDS011;8162;47.104;15.432;2023-04-03T00:18:45;2.30;;;1.70;;
16115;SDS011;8162;47.104;15.432;2023-04-03T00:21:46;1.83;;;1.67;;
16115;SDS011;8162;47.104;15.432;2023-04-03T00:24:47;1.30;;;1.20;;
16115;SDS011;8162;47.104;15.432;2023-04-03T00:27:48;1.63;;;1.53;;
16115;SDS011;8162;47.104;15.432;2023-04-03T00:30:50;1.87;;;1.60;;
16115;SDS011;8162;47.104;15.432;2023-04-03T00:33:51;1.57;;;1.47;;
16115;SDS011;8162;47.104;15.432;2023-04-03T00:36:52;2.13;;;1.90;;
16115;SDS011;8162;47.104;15.432;2023-04-03T00:39:53;3.20;;;1.80;;
16115;SDS011;8162;47.104;15.432;2023-04-03T00:42:55;1.67;;;1.40;;
16115;SDS011;8162;47.104;15.432;2023-04-03T00:45:57;1.67;;;1.30;;
16115;SDS011;8162;47.104;15.432;2023-04-03T00:48:58;1.63;;;1.53;;
16115;SDS011;8162;47.104;15.432;2023-04-03T00:51:59;1.33;;;1.23;;
16115;SDS011;8162;47.104;15.432;2023-04-03T00:55:02;1.50;;;1.40;;
16115;SDS011;8162;47.104;15.432;2023-04-03T00:58:05;1.43;;;1.33;;
16115;SDS011;8162;47.104;15.432;2023-04-03T01:01:07;1.60;;;1.50;;
16115;SDS011;8162;47.104;15.432;2023-04-03T01:07:30;1.87;;;1.30;;
16115;SDS011;8162;47.104;15.432;2023-04-03T01:10:31;1.97;;;1.63;;
16115;SDS011;8162;47.104;15.432;2023-04-03T01:13:32;1.73;;;1.63;;
16115;SDS011;8162;47.104;15.432;2023-04-03T01:16:33;1.60;;;1.50;;
16115;SDS011;8162;47.104;15.432;2023-04-03T01:19:35;2.37;;;1.70;;
16115;SDS011;8162;47.104;15.432;2023-04-03T01:22:56;1.53;;;1.43;;
16115;SDS011;8162;47.104;15.432;2023-04-03T01:26:00;2.20;;;1.70;;
16115;SDS011;8162;47.104;15.432;2023-04-03T01:29:01;1.63;;;1.43;;
16115;SDS011;8162;47.104;15.432;2023-04-03T01:32:02;1.90;;;1.70;;
16115;SDS011;8162;47.104;15.432;2023-04-03T01:35:03;2.07;;;1.87;;
16115;SDS011;8162;47.104;15.432;2023-04-03T01:38:04;1.77;;;1.60;;
16115;SDS011;8162;47.104;15.432;2023-04-03T01:41:06;1.93;;;1.83;;
16115;SDS011;8162;47.104;15.432;2023-04-03T01:44:07;1.70;;;1.60;;
16115;SDS011;8162;47.104;15.432;2023-04-03T01:47:09;1.70;;;1.50;;
16115;SDS011;8162;47.104;15.432;2023-04-03T01:50:10;1.60;;;1.50;;
16115;SDS011;8162;47.104;15.432;2023-04-03T01:53:11;1.67;;;1.57;;
16115;SDS011;8162;47.104;15.432;2023-04-03T01:56:12;1.60;;;1.50;;
16115;SDS011;8162;47.104;15.432;2023-04-03T01:59:13;1.90;;;1.80;;
16115;SDS011;8162;47.104;15.432;2023-04-03T02:02:17;3.10;;;1.80;;
16115;SDS011;8162;47.104;15.432;2023-04-03T02:05:20;1.77;;;1.50;;
16115;SDS011;8162;47.104;15.432;2023-04-03T02:08:21;2.47;;;1.80;;
16115;SDS011;8162;47.104;15.432;2023-04-03T02:11:22;1.60;;;1.50;;
16115;SDS011;8162;47.104;15.432;2023-04-03T02:14:23;2.23;;;1.77;;
16115;SDS011;8162;47.104;15.432;2023-04-03T02:17:24;2.20;;;1.20;;
16115;SDS011;8162;47.104;15.432;2023-04-03T02:20:25;1.70;;;1.40;;
16115;SDS011;8162;47.104;15.432;2023-04-03T02:23:26;1.37;;;1.27;;
16115;SDS011;8162;47.104;15.432;2023-04-03T02:26:27;1.70;;;1.53;;
16115;SDS011;8162;47.104;15.432;2023-04-03T02:29:28;2.17;;;1.63;;
16115;SDS011;8162;47.104;15.432;2023-04-03T02:32:29;2.07;;;1.77;;
16115;SDS011;8162;47.104;15.432;2023-04-03T02:35:30;1.67;;;1.57;;
16115;SDS011;8162;47.104;15.432;2023-04-03T02:38:32;1.47;;;1.37;;
16115;SDS011;8162;47.104;15.432;2023-04-03T02:41:33;1.63;;;1.40;;
16115;SDS011;8162;47.104;15.432;2023-04-03T02:44:37;1.27;;;1.17;;
16115;SDS011;8162;47.104;15.432;2023-04-03T02:47:38;1.50;;;1.40;;
16115;SDS011;8162;47.104;15.432;2023-04-03T02:50:40;1.43;;;1.33;;
16115;SDS011;8162;47.104;15.432;2023-04-03T02:53:41;1.47;;;1.37;;
16115;SDS011;8162;47.104;15.432;2023-04-03T02:56:42;1.80;;;1.40;;
16115;SDS011;8162;47.104;15.432;2023-04-03T02:59:43;1.87;;;1.50;;
16115;SDS011;8162;47.104;15.432;2023-04-03T03:02:44;3.17;;;1.47;;
16115;SDS011;8162;47.104;15.432;2023-04-03T03:05:45;1.73;;;1.47;;
16115;SDS011;8162;47.104;15.432;2023-04-03T03:08:48;1.60;;;1.50;;
16115;SDS011;8162;47.104;15.432;2023-04-03T03:11:49;1.23;;;1.13;;
16115;SDS011;8162;47.104;15.432;2023-04-03T03:14:50;1.50;;;1.40;;
16115;SDS011;8162;47.104;15.432;2023-04-03T03:17:51;1.70;;;1.37;;
16115;SDS011;8162;47.104;15.432;2023-04-03T03:20:53;1.77;;;1.33;;
16115;SDS011;8162;47.104;15.432;2023-04-03T03:23:54;1.60;;;1.40;;
16115;SDS011;8162;47.104;15.432;2023-04-03T03:26:55;2.03;;;1.50;;
16115;SDS011;8162;47.104;15.432;2023-04-03T03:29:56;1.40;;;1.30;;
16115;SDS011;8162;47.104;15.432;2023-04-03T03:32:57;1.30;;;1.20;;
16115;SDS011;8162;47.104;15.432;2023-04-03T03:35:58;1.53;;;1.40;;
16115;SDS011;8162;47.104;15.432;2023-04-03T03:38:59;1.53;;;1.40;;
16115;SDS011;8162;47.104;15.432;2023-04-03T03:42:00;1.60;;;1.50;;
16115;SDS011;8162;47.104;15.432;2023-04-03T03:45:01;1.50;;;1.40;;
16115;SDS011;8162;47.104;15.432;2023-04-03T03:48:02;1.67;;;1.53;;
16115;SDS011;8162;47.104;15.432;2023-04-03T03:51:03;2.23;;;1.60;;
16115;SDS011;8162;47.104;15.432;2023-04-03T03:54:04;1.80;;;1.20;;
16115;SDS011;8162;47.104;15.432;2023-04-03T03:57:06;1.40;;;1.13;;
16115;SDS011;8162;47.104;15.432;2023-04-03T04:00:07;1.23;;;1.13;;
16115;SDS011;8162;47.104;15.432;2023-04-03T04:03:08;2.80;;;1.37;;
16115;SDS011;8162;47.104;15.432;2023-04-03T04:06:09;1.20;;;1.10;;
16115;SDS011;8162;47.104;15.432;2023-04-03T04:09:10;1.77;;;1.57;;
16115;SDS011;8162;47.104;15.432;2023-04-03T04:12:11;1.20;;;1.10;;
16115;SDS011;8162;47.104;15.432;2023-04-03T04:15:12;1.30;;;1.20;;
16115;SDS011;8162;47.104;15.432;2023-04-03T04:18:14;1.13;;;1.03;;
16115;SDS011;8162;47.104;15.432;2023-04-03T04:21:15;1.50;;;1.30;;
16115;SDS011;8162;47.104;15.432;2023-04-03T04:24:16;1.53;;;1.20;;
16115;SDS011;8162;47.104;15.432;2023-04-03T04:27:17;1.27;;;1.17;;
16115;SDS011;8162;47.104;15.432;2023-04-03T04:30:18;1.70;;;1.57;;
16115;SDS011;8162;47.104;15.432;2023-04-03T04:33:19;1.20;;;1.10;;
16115;SDS011;8162;47.104;15.432;2023-04-03T04:36:20;1.07;;;1.07;;
16115;SDS011;8162;47.104;15.432;2023-04-03T04:39:21;1.10;;;1.00;;
16115;SDS011;8162;47.104;15.432;2023-04-03T04:42:22;2.30;;;1.17;;
16115;SDS011;8162;47.104;15.432;2023-04-03T04:45:23;2.73;;;1.50;;
16115;SDS011;8162;47.104;15.432;2023-04-03T04:48:24;2.30;;;1.60;;
16115;SDS011;8162;47.104;15.432;2023-04-03T04:51:25;1.67;;;1.30;;
16115;SDS011;8162;47.104;15.432;2023-04-03T04:54:26;2.20;;;1.53;;
16115;SDS011;8162;47.104;15.432;2023-04-03T04:57:27;2.10;;;1.53;;
16115;SDS011;8162;47.104;15.432;2023-04-03T05:00:28;1.47;;;1.37;;
16115;SDS011;8162;47.104;15.432;2023-04-03T05:03:30;2.03;;;1.37;;
16115;SDS011;8162;47.104;15.432;2023-04-03T05:06:31;1.33;;;1.23;;
16115;SDS011;8162;47.104;15.432;2023-04-03T05:09:32;1.63;;;1.53;;
16115;SDS011;8162;47.104;15.432;2023-04-03T05:12:33;2.40;;;2.07;;
16115;SDS011;8162;47.104;15.432;2023-04-03T05:15:35;2.53;;;1.77;;
16115;SDS011;8162;47.104;15.432;2023-04-03T05:18:36;1.77;;;1.43;;
16115;SDS011;8162;47.104;15.432;2023-04-03T05:21:37;1.43;;;1.30;;
16115;SDS011;8162;47.104;15.432;2023-04-03T05:24:38;2.70;;;1.57;;
16115;SDS011;8162;47.104;15.432;2023-04-03T05:27:39;3.20;;;1.30;;
16115;SDS011;8162;47.104;15.432;2023-04-03T05:30:40;1.53;;;1.20;;
16115;SDS011;8162;47.104;15.432;2023-04-03T05:33:41;3.17;;;1.57;;
16115;SDS011;8162;47.104;15.432;2023-04-03T05:36:42;2.80;;;1.30;;
16115;SDS011;8162;47.104;15.432;2023-04-03T05:39:43;2.53;;;1.17;;
16115;SDS011;8162;47.104;15.432;2023-04-03T05:42:45;1.63;;;1.23;;
16115;SDS011;8162;47.104;15.432;2023-04-03T05:45:47;1.97;;;1.60;;
16115;SDS011;8162;47.104;15.432;2023-04-03T05:48:48;2.33;;;1.40;;
16115;SDS011;8162;47.104;15.432;2023-04-03T05:51:49;1.90;;;1.50;;
16115;SDS011;8162;47.104;15.432;2023-04-03T05:54:51;1.53;;;1.30;;
16115;SDS011;8162;47.104;15.432;2023-04-03T05:57:52;2.10;;;1.20;;
16115;SDS011;8162;47.104;15.432;2023-04-03T06:00:54;1.80;;;1.30;;
16115;SDS011;8162;47.104;15.432;2023-04-03T06:03:55;1.47;;;1.20;;
16115;SDS011;8162;47.104;15.432;2023-04-03T06:06:58;1.70;;;1.37;;
16115;SDS011;8162;47.104;15.432;2023-04-03T06:09:59;1.37;;;1.27;;
16115;SDS011;8162;47.104;15.432;2023-04-03T06:13:01;1.33;;;1.23;;
16115;SDS011;8162;47.104;15.432;2023-04-03T06:16:02;1.87;;;1.27;;
16115;SDS011;8162;47.104;15.432;2023-04-03T06:19:04;1.70;;;1.10;;
16115;SDS011;8162;47.104;15.432;2023-04-03T06:22:06;1.63;;;1.30;;
16115;SDS011;8162;47.104;15.432;2023-04-03T06:25:07;1.87;;;1.47;;
16115;SDS011;8162;47.104;15.432;2023-04-03T06:28:09;1.67;;;1.40;;
16115;SDS011;8162;47.104;15.432;2023-04-03T06:31:10;2.00;;;1.20;;
16115;SDS011;8162;47.104;15.432;2023-04-03T06:34:11;1.33;;;1.23;;
16115;SDS011;8162;47.104;15.432;2023-04-03T06:37:20;5.07;;;1.27;;
16115;SDS011;8162;47.104;15.432;2023-04-03T06:40:22;1.73;;;1.40;;
16115;SDS011;8162;47.104;15.432;2023-04-03T06:43:24;2.10;;;1.37;;
16115;SDS011;8162;47.104;15.432;2023-04-03T06:46:25;3.03;;;1.83;;
16115;SDS011;8162;47.104;15.432;2023-04-03T06:49:26;1.50;;;1.03;;
16115;SDS011;8162;47.104;15.432;2023-04-03T06:52:28;1.37;;;1.27;;
16115;SDS011;8162;47.104;15.432;2023-04-03T06:55:29;1.83;;;1.20;;
16115;SDS011;8162;47.104;15.432;2023-04-03T06:58:31;1.57;;;1.20;;
16115;SDS011;8162;47.104;15.432;2023-04-03T07:01:32;1.37;;;1.07;;
16115;SDS011;8162;47.104;15.432;2023-04-03T07:04:33;2.07;;;1.43;;
16115;SDS011;8162;47.104;15.432;2023-04-03T07:07:34;1.20;;;1.10;;
16115;SDS011;8162;47.104;15.432;2023-04-03T07:10:37;2.40;;;1.10;;
16115;SDS011;8162;47.104;15.432;2023-04-03T07:13:38;1.43;;;1.23;;
16115;SDS011;8162;47.104;15.432;2023-04-03T07:16:39;1.10;;;1.00;;
16115;SDS011;8162;47.104;15.432;2023-04-03T07:19:40;1.70;;;1.13;;
16115;SDS011;8162;47.104;15.432;2023-04-03T07:22:42;1.20;;;1.00;;
16115;SDS011;8162;47.104;15.432;2023-04-03T07:25:43;1.47;;;1.10;;
16115;SDS011;8162;47.104;15.432;2023-04-03T07:28:44;1.67;;;1.57;;
16115;SDS011;8162;47.104;15.432;2023-04-03T07:31:47;1.57;;;1.43;;
16115;SDS011;8162;47.104;15.432;2023-04-03T07:34:49;1.10;;;1.00;;
16115;SDS011;8162;47.104;15.432;2023-04-03T07:37:50;1.17;;;1.10;;
16115;SDS011;8162;47.104;15.432;2023-04-03T07:40:51;1.67;;;1.20;;
16115;SDS011;8162;47.104;15.432;2023-04-03T07:43:52;1.67;;;1.20;;
16115;SDS011;8162;47.104;15.432;2023-04-03T07:46:54;1.40;;;1.27;;
16115;SDS011;8162;47.104;15.432;2023-04-03T07:49:56;2.47;;;1.53;;
16115;SDS011;8162;47.104;15.432;2023-04-03T07:52:57;1.20;;;1.10;;
16115;SDS011;8162;47.104;15.432;2023-04-03T07:55:58;1.87;;;1.40;;
16115;SDS011;8162;47.104;15.432;2023-04-03T07:58:59;1.23;;;1.10;;
16115;SDS011;8162;47.104;15.432;2023-04-03T08:02:00;1.30;;;1.20;;
16115;SDS011;8162;47.104;15.432;2023-04-03T08:05:02;1.73;;;1.50;;
16115;SDS011;8162;47.104;15.432;2023-04-03T08:08:03;1.67;;;1.27;;
16115;SDS011;8162;47.104;15.432;2023-04-03T08:11:04;1.70;;;1.37;;
16115;SDS011;8162;47.104;15.432;2023-04-03T08:14:06;1.83;;;1.03;;
16115;SDS011;8162;47.104;15.432;2023-04-03T08:17:07;1.40;;;1.30;;
16115;SDS011;8162;47.104;15.432;2023-04-03T08:20:11;2.00;;;1.27;;
16115;SDS011;8162;47.104;15.432;2023-04-03T08:23:12;1.10;;;1.00;;
16115;SDS011;8162;47.104;15.432;2023-04-03T08:26:15;1.03;;;0.93;;
16115;SDS011;8162;47.104;15.432;2023-04-03T08:29:17;1.77;;;0.97;;
16115;SDS011;8162;47.104;15.432;2023-04-03T08:32:18;0.80;;;0.80;;
16115;SDS011;8162;47.104;15.432;2023-04-03T08:35:19;1.10;;;0.93;;
16115;SDS011;8162;47.104;15.432;2023-04-03T08:38:20;4.13;;;1.40;;
16115;SDS011;8162;47.104;15.432;2023-04-03T08:44:41;1.80;;;0.80;;
16115;SDS011;8162;47.104;15.432;2023-04-03T08:47:49;1.20;;;0.97;;
16115;SDS011;8162;47.104;15.432;2023-04-03T08:50:55;0.87;;;0.80;;
16115;SDS011;8162;47.104;15.432;2023-04-03T08:56:59;1.00;;;0.80;;
16115;SDS011;8162;47.104;15.432;2023-04-03T09:00:04;0.80;;;0.80;;
16115;SDS011;8162;47.104;15.432;2023-04-03T09:03:10;0.70;;;0.70;;
16115;SDS011;8162;47.104;15.432;2023-04-03T09:06:13;1.77;;;1.00;;
16115;SDS011;8162;47.104;15.432;2023-04-03T09:12:39;3.33;;;1.23;;
16115;SDS011;8162;47.104;15.432;2023-04-03T09:15:42;0.67;;;0.67;;
16115;SDS011;8162;47.104;15.432;2023-04-03T09:18:45;1.07;;;0.97;;
16115;SDS011;8162;47.104;15.432;2023-04-03T09:21:48;1.23;;;1.00;;
16115;SDS011;8162;47.104;15.432;2023-04-03T09:24:55;2.10;;;1.13;;
16115;SDS011;8162;47.104;15.432;2023-04-03T09:27:59;0.90;;;0.90;;
16115;SDS011;8162;47.104;15.432;2023-04-03T09:31:01;1.10;;;1.00;;
16115;SDS011;8162;47.104;15.432;2023-04-03T09:34:04;1.20;;;1.10;;
16115;SDS011;8162;47.104;15.432;2023-04-03T09:37:07;1.60;;;1.20;;
16115;SDS011;8162;47.104;15.432;2023-04-03T09:43:30;1.43;;;1.30;;
16115;SDS011;8162;47.104;15.432;2023-04-03T09:46:32;1.10;;;1.00;;
16115;SDS011;8162;47.104;15.432;2023-04-03T09:49:34;1.83;;;1.30;;
16115;SDS011;8162;47.104;15.432;2023-04-03T09:52:35;1.20;;;1.10;;
16115;SDS011;8162;47.104;15.432;2023-04-03T09:55:42;1.30;;;1.10;;
16115;SDS011;8162;47.104;15.432;2023-04-03T09:58:47;1.20;;;1.10;;
16115;SDS011;8162;47.104;15.432;2023-04-03T10:02:28;1.40;;;0.87;;
16115;SDS011;8162;47.104;15.432;2023-04-03T10:05:37;1.30;;;1.07;;
16115;SDS011;8162;47.104;15.432;2023-04-03T10:08:38;1.30;;;1.20;;
16115;SDS011;8162;47.104;15.432;2023-04-03T10:11:51;1.20;;;1.10;;
16115;SDS011;8162;47.104;15.432;2023-04-03T10:14:58;1.17;;;0.90;;
16115;SDS011;8162;47.104;15.432;2023-04-03T10:18:02;1.20;;;1.10;;
16115;SDS011;8162;47.104;15.432;2023-04-03T10:21:09;1.53;;;1.10;;
16115;SDS011;8162;47.104;15.432;2023-04-03T10:24:23;1.53;;;1.10;;
16115;SDS011;8162;47.104;15.432;2023-04-03T10:30:39;0.93;;;0.77;;
16115;SDS011;8162;47.104;15.432;2023-04-03T10:33:52;1.20;;;1.00;;
16115;SDS011;8162;47.104;15.432;2023-04-03T10:43:08;1.17;;;1.07;;
16115;SDS011;8162;47.104;15.432;2023-04-03T10:58:45;1.43;;;1.33;;
16115;SDS011;8162;47.104;15.432;2023-04-03T11:01:51;1.10;;;1.00;;
16115;SDS011;8162;47.104;15.432;2023-04-03T11:11:19;1.70;;;1.20;;
16115;SDS011;8162;47.104;15.432;2023-04-03T11:14:28;1.20;;;1.10;;
16115;SDS011;8162;47.104;15.432;2023-04-03T11:17:33;1.00;;;1.00;;
16115;SDS011;8162;47.104;15.432;2023-04-03T11:20:36;1.13;;;0.97;;
16115;SDS011;8162;47.104;15.432;2023-04-03T11:23:39;1.70;;;0.93;;
16115;SDS011;8162;47.104;15.432;2023-04-03T11:26:40;1.80;;;1.00;;
16115;SDS011;8162;47.104;15.432;2023-04-03T11:29:42;1.10;;;1.00;;
16115;SDS011;8162;47.104;15.432;2023-04-03T11:36:07;1.00;;;0.90;;
16115;SDS011;8162;47.104;15.432;2023-04-03T11:39:19;0.97;;;0.87;;
16115;SDS011;8162;47.104;15.432;2023-04-03T11:45:31;0.93;;;0.93;;
16115;SDS011;8162;47.104;15.432;2023-04-03T11:51:37;1.23;;;1.00;;
16115;SDS011;8162;47.104;15.432;2023-04-03T11:54:45;1.57;;;1.20;;
16115;SDS011;8162;47.104;15.432;2023-04-03T12:01:04;1.10;;;1.00;;
16115;SDS011;8162;47.104;15.432;2023-04-03T12:04:07;1.63;;;0.90;;
16115;SDS011;8162;47.104;15.432;2023-04-03T12:07:16;1.73;;;1.00;;
16115;SDS011;8162;47.104;15.432;2023-04-03T12:10:18;3.50;;;1.20;;
16115;SDS011;8162;47.104;15.432;2023-04-03T12:13:20;1.30;;;1.20;;
16115;SDS011;8162;47.104;15.432;2023-04-03T12:19:32;1.20;;;0.93;;
16115;SDS011;8162;47.104;15.432;2023-04-03T12:22:34;1.43;;;1.30;;
16115;SDS011;8162;47.104;15.432;2023-04-03T12:25:40;1.60;;;1.20;;
16115;SDS011;8162;47.104;15.432;2023-04-03T12:28:48;1.10;;;1.00;;
16115;SDS011;8162;47.104;15.432;2023-04-03T12:44:50;1.63;;;1.30;;
16115;SDS011;8162;47.104;15.432;2023-04-03T12:48:09;1.20;;;1.03;;
16115;SDS011;8162;47.104;15.432;2023-04-03T12:51:16;1.40;;;1.30;;
16115;SDS011;8162;47.104;15.432;2023-04-03T12:54:30;1.37;;;1.27;;
16115;SDS011;8162;47.104;15.432;2023-04-03T12:57:36;1.97;;;1.20;;
16115;SDS011;8162;47.104;15.432;2023-04-03T13:00:37;1.13;;;1.00;;
16115;SDS011;8162;47.104;15.432;2023-04-03T13:03:40;1.07;;;1.07;;
16115;SDS011;8162;47.104;15.432;2023-04-03T13:06:44;1.30;;;1.17;;
16115;SDS011;8162;47.104;15.432;2023-04-03T13:09:47;1.43;;;1.10;;
16115;SDS011;8162;47.104;15.432;2023-04-03T13:12:56;1.30;;;1.20;;
16115;SDS011;8162;47.104;15.432;2023-04-03T13:15:58;1.63;;;1.13;;
16115;SDS011;8162;47.104;15.432;2023-04-03T13:18:59;1.30;;;1.20;;
16115;SDS011;8162;47.104;15.432;2023-04-03T13:22:34;2.33;;;1.00;;
16115;SDS011;8162;47.104;15.432;2023-04-03T13:25:29;0.90;;;0.90;;
16115;SDS011;8162;47.104;15.432;2023-04-03T13:28:31;2.43;;;1.10;;
16115;SDS011;8162;47.104;15.432;2023-04-03T13:31:33;1.40;;;1.00;;
16115;SDS011;8162;47.104;15.432;2023-04-03T13:34:36;1.10;;;1.00;;
16115;SDS011;8162;47.104;15.432;2023-04-03T13:37:38;1.73;;;1.10;;
16115;SDS011;8162;47.104;15.432;2023-04-03T13:40:49;1.67;;;1.20;;
16115;SDS011;8162;47.104;15.432;2023-04-03T13:43:50;1.63;;;1.10;;
16115;SDS011;8162;47.104;15.432;2023-04-03T13:47:14;2.30;;;1.20;;
16115;SDS011;8162;47.104;15.432;2023-04-03T13:50:19;1.10;;;1.00;;
16115;SDS011;8162;47.104;15.432;2023-04-03T13:53:25;3.57;;;1.23;;
16115;SDS011;8162;47.104;15.432;2023-04-03T13:56:31;1.00;;;1.00;;
16115;SDS011;8162;47.104;15.432;2023-04-03T13:59:34;1.30;;;1.20;;
16115;SDS011;8162;47.104;15.432;2023-04-03T14:02:38;2.43;;;1.27;;
16115;SDS011;8162;47.104;15.432;2023-04-03T14:05:39;2.50;;;1.40;;
16115;SDS011;8162;47.104;15.432;2023-04-03T14:08:41;1.37;;;1.27;;
16115;SDS011;8162;47.104;15.432;2023-04-03T14:11:42;1.97;;;1.20;;
16115;SDS011;8162;47.104;15.432;2023-04-03T14:14:43;2.27;;;1.93;;
16115;SDS011;8162;47.104;15.432;2023-04-03T14:17:45;4.23;;;1.30;;
16115;SDS011;8162;47.104;15.432;2023-04-03T14:20:47;1.27;;;1.17;;
16115;SDS011;8162;47.104;15.432;2023-04-03T14:23:48;1.47;;;1.20;;
16115;SDS011;8162;47.104;15.432;2023-04-03T14:26:51;1.80;;;1.30;;
16115;SDS011;8162;47.104;15.432;2023-04-03T14:29:53;2.93;;;1.53;;
16115;SDS011;8162;47.104;15.432;2023-04-03T14:32:54;6.20;;;1.70;;
16115;SDS011;8162;47.104;15.432;2023-04-03T14:35:56;1.40;;;1.30;;
16115;SDS011;8162;47.104;15.432;2023-04-03T14:38:57;3.30;;;1.60;;
16115;SDS011;8162;47.104;15.432;2023-04-03T14:41:58;2.43;;;1.80;;
16115;SDS011;8162;47.104;15.432;2023-04-03T14:45:00;1.40;;;1.20;;
16115;SDS011;8162;47.104;15.432;2023-04-03T14:48:03;2.20;;;1.60;;
16115;SDS011;8162;47.104;15.432;2023-04-03T14:51:04;1.23;;;1.13;;
16115;SDS011;8162;47.104;15.432;2023-04-03T14:54:05;1.30;;;1.13;;
16115;SDS011;8162;47.104;15.432;2023-04-03T14:57:08;1.47;;;1.37;;
16115;SDS011;8162;47.104;15.432;2023-04-03T15:00:16;1.63;;;1.30;;
16115;SDS011;8162;47.104;15.432;2023-04-03T15:03:21;1.30;;;1.20;;
16115;SDS011;8162;47.104;15.432;2023-04-03T15:06:23;1.73;;;1.43;;
16115;SDS011;8162;47.104;15.432;2023-04-03T15:09:26;1.70;;;1.30;;
16115;SDS011;8162;47.104;15.432;2023-04-03T15:12:27;1.70;;;1.30;;
16115;SDS011;8162;47.104;15.432;2023-04-03T15:15:29;1.40;;;1.20;;
16115;SDS011;8162;47.104;15.432;2023-04-03T15:18:31;1.80;;;1.20;;
16115;SDS011;8162;47.104;15.432;2023-04-03T15:21:33;1.60;;;1.20;;
16115;SDS011;8162;47.104;15.432;2023-04-03T15:24:35;2.60;;;1.30;;
16115;SDS011;8162;47.104;15.432;2023-04-03T15:27:36;1.40;;;1.30;;
16115;SDS011;8162;47.104;15.432;2023-04-03T15:30:37;1.50;;;1.40;;
16115;SDS011;8162;47.104;15.432;2023-04-03T15:33:40;1.60;;;1.43;;
16115;SDS011;8162;47.104;15.432;2023-04-03T15:36:41;1.80;;;1.30;;
16115;SDS011;8162;47.104;15.432;2023-04-03T15:39:42;1.93;;;1.30;;
16115;SDS011;8162;47.104;15.432;2023-04-03T15:42:43;1.37;;;1.27;;
16115;SDS011;8162;47.104;15.432;2023-04-03T15:45:44;2.10;;;1.47;;
16115;SDS011;8162;47.104;15.432;2023-04-03T15:48:45;1.40;;;1.27;;
16115;SDS011;8162;47.104;15.432;2023-04-03T15:51:46;1.57;;;1.30;;
16115;SDS011;8162;47.104;15.432;2023-04-03T15:54:48;2.73;;;1.50;;
16115;SDS011;8162;47.104;15.432;2023-04-03T15:57:49;1.90;;;1.80;;
16115;SDS011;8162;47.104;15.432;2023-04-03T16:00:51;1.77;;;1.30;;
16115;SDS011;8162;47.104;15.432;2023-04-03T16:03:52;1.80;;;1.47;;
16115;SDS011;8162;47.104;15.432;2023-04-03T16:06:53;1.70;;;1.50;;
16115;SDS011;8162;47.104;15.432;2023-04-03T16:09:54;2.30;;;1.60;;
16115;SDS011;8162;47.104;15.432;2023-04-03T16:12:55;2.63;;;1.60;;
16115;SDS011;8162;47.104;15.432;2023-04-03T16:15:56;1.87;;;1.77;;
16115;SDS011;8162;47.104;15.432;2023-04-03T16:18:57;1.60;;;1.50;;
16115;SDS011;8162;47.104;15.432;2023-04-03T16:21:58;1.83;;;1.73;;
16115;SDS011;8162;47.104;15.432;2023-04-03T16:25:00;3.47;;;2.00;;
16115;SDS011;8162;47.104;15.432;2023-04-03T16:28:02;2.77;;;1.90;;
16115;SDS011;8162;47.104;15.432;2023-04-03T16:31:03;2.80;;;1.70;;
16115;SDS011;8162;47.104;15.432;2023-04-03T16:34:06;2.43;;;1.80;;
16115;SDS011;8162;47.104;15.432;2023-04-03T16:37:07;2.10;;;1.90;;
16115;SDS011;8162;47.104;15.432;2023-04-03T16:40:09;1.70;;;1.60;;
16115;SDS011;8162;47.104;15.432;2023-04-03T16:43:11;1.83;;;1.73;;
16115;SDS011;8162;47.104;15.432;2023-04-03T16:46:12;2.10;;;1.90;;
16115;SDS011;8162;47.104;15.432;2023-04-03T16:49:13;3.40;;;1.83;;
16115;SDS011;8162;47.104;15.432;2023-04-03T16:52:15;4.13;;;2.00;;
16115;SDS011;8162;47.104;15.432;2023-04-03T16:55:16;3.53;;;1.80;;
16115;SDS011;8162;47.104;15.432;2023-04-03T16:58:17;2.53;;;2.07;;
16115;SDS011;8162;47.104;15.432;2023-04-03T17:01:18;3.73;;;1.90;;
16115;SDS011;8162;47.104;15.432;2023-04-03T17:04:19;3.17;;;2.10;;
16115;SDS011;8162;47.104;15.432;2023-04-03T17:07:21;2.20;;;2.00;;
16115;SDS011;8162;47.104;15.432;2023-04-03T17:10:23;2.77;;;2.23;;
16115;SDS011;8162;47.104;15.432;2023-04-03T17:13:24;2.60;;;1.97;;
16115;SDS011;8162;47.104;15.432;2023-04-03T17:16:32;2.57;;;1.83;;
16115;SDS011;8162;47.104;15.432;2023-04-03T17:19:33;2.83;;;2.30;;
16115;SDS011;8162;47.104;15.432;2023-04-03T17:22:35;2.67;;;2.07;;
16115;SDS011;8162;47.104;15.432;2023-04-03T17:25:36;2.90;;;2.30;;
16115;SDS011;8162;47.104;15.432;2023-04-03T17:28:37;2.60;;;2.20;;
16115;SDS011;8162;47.104;15.432;2023-04-03T17:31:40;2.57;;;2.13;;
16115;SDS011;8162;47.104;15.432;2023-04-03T17:34:42;3.23;;;2.10;;
16115;SDS011;8162;47.104;15.432;2023-04-03T17:37:43;3.57;;;2.57;;
16115;SDS011;8162;47.104;15.432;2023-04-03T17:40:44;3.00;;;2.60;;
16115;SDS011;8162;47.104;15.432;2023-04-03T17:43:45;5.47;;;3.03;;
16115;SDS011;8162;47.104;15.432;2023-04-03T17:46:46;4.17;;;3.77;;
16115;SDS011;8162;47.104;15.432;2023-04-03T17:49:48;3.67;;;2.43;;
16115;SDS011;8162;47.104;15.432;2023-04-03T17:52:50;4.37;;;2.80;;
16115;SDS011;8162;47.104;15.432;2023-04-03T17:55:51;4.03;;;2.40;;
16115;SDS011;8162;47.104;15.432;2023-04-03T17:58:53;2.87;;;2.57;;
16115;SDS011;8162;47.104;15.432;2023-04-03T18:01:55;4.00;;;2.50;;
16115;SDS011;8162;47.104;15.432;2023-04-03T18:04:56;2.20;;;2.00;;
16115;SDS011;8162;47.104;15.432;2023-04-03T18:07:58;2.30;;;2.10;;
16115;SDS011;8162;47.104;15.432;2023-04-03T18:11:00;3.33;;;2.30;;
16115;SDS011;8162;47.104;15.432;2023-04-03T18:14:02;2.87;;;2.20;;
16115;SDS011;8162;47.104;15.432;2023-04-03T18:17:04;3.47;;;2.20;;
16115;SDS011;8162;47.104;15.432;2023-04-03T18:20:06;2.63;;;2.17;;
16115;SDS011;8162;47.104;15.432;2023-04-03T18:23:09;2.60;;;2.20;;
16115;SDS011;8162;47.104;15.432;2023-04-03T18:26:10;2.50;;;2.00;;
16115;SDS011;8162;47.104;15.432;2023-04-03T18:29:12;2.80;;;2.30;;
16115;SDS011;8162;47.104;15.432;2023-04-03T18:32:15;2.80;;;2.20;;
16115;SDS011;8162;47.104;15.432;2023-04-03T18:35:17;3.50;;;2.30;;
16115;SDS011;8162;47.104;15.432;2023-04-03T18:38:18;2.97;;;2.63;;
16115;SDS011;8162;47.104;15.432;2023-04-03T18:41:23;3.90;;;2.50;;
16115;SDS011;8162;47.104;15.432;2023-04-03T18:44:28;2.83;;;1.87;;
16115;SDS011;8162;47.104;15.432;2023-04-03T18:47:31;3.97;;;2.77;;
16115;SDS011;8162;47.104;15.432;2023-04-03T18:50:32;4.63;;;3.50;;
16115;SDS011;8162;47.104;15.432;2023-04-03T18:53:34;4.00;;;2.80;;
16115;SDS011;8162;47.104;15.432;2023-04-03T18:56:36;3.60;;;2.50;;
16115;SDS011;8162;47.104;15.432;2023-04-03T18:59:37;3.40;;;2.73;;
16115;SDS011;8162;47.104;15.432;2023-04-03T19:02:39;3.77;;;2.60;;
16115;SDS011;8162;47.104;15.432;2023-04-03T19:05:40;2.83;;;2.37;;
16115;SDS011;8162;47.104;15.432;2023-04-03T19:08:41;2.93;;;1.90;;
16115;SDS011;8162;47.104;15.432;2023-04-03T19:11:43;2.20;;;1.97;;
16115;SDS011;8162;47.104;15.432;2023-04-03T19:14:44;2.93;;;2.10;;
16115;SDS011;8162;47.104;15.432;2023-04-03T19:17:45;4.37;;;3.10;;
16115;SDS011;8162;47.104;15.432;2023-04-03T19:20:47;6.50;;;4.00;;
16115;SDS011;8162;47.104;15.432;2023-04-03T19:23:48;13.53;;;6.53;;
16115;SDS011;8162;47.104;15.432;2023-04-03T19:26:49;9.23;;;5.63;;
16115;SDS011;8162;47.104;15.432;2023-04-03T19:29:51;6.20;;;3.20;;
16115;SDS011;8162;47.104;15.432;2023-04-03T19:32:54;3.97;;;2.40;;